Time;durP1;ratioP1;P1;durP2;ratioP2;P2;SDS_P1;SDS_P2;PMS_P1;PMS_P2;Temp;Humidity;BMP_temperature;BMP_pressure;BME280_temperature;BME280_humidity;BME280_pressure;Samples;Min_cycle;Max_cycle;Signal;HPM_P1;HPM_P2
2021/03/28 00:00:23;;;;;;;12.38;3.78;;;6.90;92.80;;;;;;2063941;28;20493;-79
2021/03/28 00:01:51;;;;;;;10.40;3.30;;;6.90;92.50;;;;;;2064086;28;20095;-79
2021/03/28 00:02:58;;;;;;;11.20;3.25;;;6.90;92.70;;;;;;2063835;28;20473;-79
2021/03/28 00:04:01;;;;;;;5.53;2.30;;;6.90;92.90;;;;;;2063392;28;20797;-79
2021/03/28 00:05:22;;;;;;;6.57;2.40;;;6.90;92.70;;;;;;2055656;28;20098;-79
2021/03/28 00:06:34;;;;;;;11.40;3.47;;;7.00;92.50;;;;;;2058148;28;20023;-77
2021/03/28 00:07:45;;;;;;;9.20;3.25;;;7.00;92.20;;;;;;2056421;28;20018;-80
2021/03/28 00:09:05;;;;;;;7.15;2.55;;;7.00;92.10;;;;;;2063586;28;20106;-78
2021/03/28 00:10:45;;;;;;;7.68;2.58;;;7.10;92.10;;;;;;2064301;28;20022;-79
2021/03/28 00:12:04;;;;;;;6.38;2.70;;;7.00;91.00;;;;;;2064187;28;20497;-79
2021/03/28 00:13:27;;;;;;;10.10;2.90;;;7.10;91.80;;;;;;2063162;28;20106;-80
2021/03/28 00:14:49;;;;;;;13.25;3.25;;;7.10;91.90;;;;;;2058283;28;20397;-78
2021/03/28 00:15:56;;;;;;;10.73;3.13;;;7.10;92.00;;;;;;2063680;28;20101;-78
2021/03/28 00:16:57;;;;;;;10.00;3.25;;;7.10;91.90;;;;;;2063718;28;20023;-81
2021/03/28 00:18:21;;;;;;;7.90;2.80;;;7.20;91.70;;;;;;2063079;28;20105;-78
2021/03/28 00:19:34;;;;;;;9.65;3.38;;;7.20;91.80;;;;;;2063652;28;20022;-78
2021/03/28 00:20:38;;;;;;;10.15;3.30;;;7.20;92.10;;;;;;2064055;28;20093;-79
2021/03/28 00:21:56;;;;;;;7.18;3.03;;;7.20;92.10;;;;;;2063469;28;20221;-79
2021/03/28 00:23:18;;;;;;;10.98;3.25;;;7.20;92.00;;;;;;2065741;28;20022;-80
2021/03/28 00:24:34;;;;;;;10.35;3.50;;;7.20;92.20;;;;;;2063191;28;20481;-81
2021/03/28 00:26:00;;;;;;;8.13;2.95;;;7.30;92.00;;;;;;2057353;28;20034;-78
2021/03/28 00:27:07;;;;;;;10.38;3.40;;;7.20;92.00;;;;;;2050362;28;20043;-80
2021/03/28 00:28:26;;;;;;;9.57;3.50;;;7.30;91.90;;;;;;2055876;28;20022;-80
2021/03/28 00:29:27;;;;;;;7.38;3.50;;;7.30;92.00;;;;;;2063617;28;20102;-79
2021/03/28 00:30:35;;;;;;;11.57;3.65;;;7.30;92.20;;;;;;2064242;28;20019;-78
2021/03/28 00:32:04;;;;;;;8.40;3.88;;;7.40;92.30;;;;;;2063844;28;20023;-78
2021/03/28 00:33:20;;;;;;;10.85;3.58;;;7.40;92.90;;;;;;2063924;28;20166;-80
2021/03/28 00:34:22;;;;;;;11.02;3.33;;;7.40;93.20;;;;;;2063798;28;20029;-80
2021/03/28 00:35:30;;;;;;;14.52;4.13;;;7.40;93.10;;;;;;2063032;28;20018;-79
2021/03/28 00:36:55;;;;;;;10.50;3.38;;;7.40;93.20;;;;;;2063465;28;20022;-80
2021/03/28 00:38:37;;;;;;;10.57;4.00;;;7.40;93.40;;;;;;2063966;28;20391;-79
2021/03/28 00:39:52;;;;;;;9.77;3.80;;;7.40;93.40;;;;;;2065701;28;20346;-81
2021/03/28 00:41:11;;;;;;;10.38;3.60;;;7.50;93.30;;;;;;2065523;28;20109;-80
2021/03/28 00:42:27;;;;;;;13.00;3.75;;;7.50;93.80;;;;;;2065452;28;20026;-80
2021/03/28 00:43:49;;;;;;;9.40;3.58;;;7.50;94.00;;;;;;2065574;28;20026;-78
2021/03/28 00:44:53;;;;;;;8.48;3.67;;;7.50;94.00;;;;;;2064787;28;20145;-80
2021/03/28 00:45:57;;;;;;;11.70;3.53;;;7.50;94.10;;;;;;2065259;28;20026;-78
2021/03/28 00:47:04;;;;;;;8.20;3.67;;;7.50;94.30;;;;;;2065238;28;20388;-80
2021/03/28 00:48:15;;;;;;;12.70;3.70;;;7.60;94.30;;;;;;2065274;28;20072;-80
2021/03/28 00:49:37;;;;;;;11.50;3.88;;;7.60;94.30;;;;;;2065452;28;20023;-78
2021/03/28 00:50:45;;;;;;;16.13;4.18;;;7.60;94.10;;;;;;2064850;28;20030;-78
2021/03/28 00:51:49;;;;;;;13.07;4.22;;;7.60;94.10;;;;;;2057945;28;20029;-79
2021/03/28 00:52:56;;;;;;;12.25;3.70;;;7.70;94.30;;;;;;2064956;28;20050;-80
2021/03/28 00:54:10;;;;;;;8.93;3.20;;;7.70;94.50;;;;;;2065180;28;20036;-80
2021/03/28 00:55:41;;;;;;;11.80;4.32;;;7.70;94.70;;;;;;2064716;28;20030;-78
2021/03/28 00:56:49;;;;;;;11.52;3.67;;;7.60;94.80;;;;;;2067363;28;20037;-80
2021/03/28 00:58:07;;;;;;;12.15;4.28;;;7.70;94.70;;;;;;2064778;28;20101;-80
2021/03/28 00:59:16;;;;;;;14.63;4.22;;;7.70;95.00;;;;;;2059236;28;20035;-81
2021/03/28 01:00:42;;;;;;;13.30;4.28;;;7.70;94.90;;;;;;2064681;28;20026;-78
2021/03/28 01:02:16;;;;;;;9.05;3.78;;;7.70;95.00;;;;;;2065212;28;20036;-78
2021/03/28 01:03:33;;;;;;;14.80;4.35;;;7.60;95.30;;;;;;2051522;28;20537;-80
2021/03/28 01:04:48;;;;;;;9.82;3.67;;;7.70;95.00;;;;;;2065234;28;20023;-79
2021/03/28 01:05:53;;;;;;;10.73;3.70;;;7.70;95.30;;;;;;2065595;28;20018;-79
2021/03/28 01:06:56;;;;;;;11.85;3.63;;;7.70;95.30;;;;;;2065128;28;20409;-78
2021/03/28 01:08:20;;;;;;;9.63;3.53;;;7.70;95.20;;;;;;2064862;28;20026;-78
2021/03/28 01:09:52;;;;;;;11.73;4.10;;;7.70;95.40;;;;;;2064568;28;20019;-79
2021/03/28 01:11:14;;;;;;;14.73;4.70;;;7.70;95.80;;;;;;2065220;28;20469;-78
2021/03/28 01:13:05;;;;;;;11.18;3.22;;;7.70;96.00;;;;;;2065178;28;20480;-80
2021/03/28 01:14:59;;;;;;;15.43;4.85;;;7.60;96.30;;;;;;2065248;28;20033;-78
2021/03/28 01:16:37;;;;;;;16.63;4.10;;;7.60;96.30;;;;;;2056369;28;20062;-79
2021/03/28 01:17:45;;;;;;;13.43;4.00;;;7.60;96.40;;;;;;2064404;28;20026;-79
2021/03/28 01:18:52;;;;;;;10.70;3.47;;;7.60;96.30;;;;;;2064378;28;20034;-79
2021/03/28 01:20:24;;;;;;;12.32;4.70;;;7.60;96.50;;;;;;2065291;28;20026;-78
2021/03/28 01:21:36;;;;;;;12.00;3.58;;;7.70;96.70;;;;;;2065247;28;20125;-79
2021/03/28 01:22:54;;;;;;;11.10;3.92;;;7.70;96.70;;;;;;2065396;28;20026;-80
2021/03/28 01:24:19;;;;;;;11.40;3.63;;;7.70;96.80;;;;;;2065129;28;20022;-78
2021/03/28 01:25:36;;;;;;;10.90;4.10;;;7.70;96.90;;;;;;2065207;28;20026;-80
2021/03/28 01:26:55;;;;;;;11.73;3.33;;;7.70;96.90;;;;;;2065260;28;20048;-81
2021/03/28 01:28:22;;;;;;;13.82;4.18;;;7.70;96.40;;;;;;2064739;28;20053;-80
2021/03/28 01:29:31;;;;;;;15.35;4.13;;;7.70;96.50;;;;;;2067227;28;20034;-78
2021/03/28 01:30:48;;;;;;;15.13;4.18;;;7.70;96.40;;;;;;2071557;28;20072;-80
2021/03/28 01:31:55;;;;;;;14.00;3.90;;;7.70;96.90;;;;;;2064639;28;20070;-80
2021/03/28 01:33:06;;;;;;;10.88;3.80;;;7.70;96.90;;;;;;2064619;28;20026;-81
2021/03/28 01:34:07;;;;;;;12.77;3.80;;;7.80;97.00;;;;;;2064954;28;20029;-79
2021/03/28 01:35:10;;;;;;;12.85;3.78;;;7.70;96.70;;;;;;2064448;28;20038;-77
2021/03/28 01:36:27;;;;;;;11.48;3.45;;;7.80;96.90;;;;;;2064449;28;20050;-78
2021/03/28 01:37:42;;;;;;;10.85;3.40;;;7.80;97.10;;;;;;2064316;28;20029;-79
2021/03/28 01:39:06;;;;;;;8.35;3.30;;;7.80;97.00;;;;;;2064523;28;20049;-78
2021/03/28 01:40:20;;;;;;;15.27;4.93;;;7.80;97.00;;;;;;2064895;28;20516;-79
2021/03/28 01:41:32;;;;;;;12.57;3.72;;;7.80;97.40;;;;;;2064522;28;20018;-80
2021/03/28 01:42:57;;;;;;;12.68;3.80;;;7.80;97.40;;;;;;2065068;28;20022;-78
2021/03/28 01:44:10;;;;;;;13.52;3.85;;;7.80;97.60;;;;;;2065009;28;20169;-79
2021/03/28 01:45:36;;;;;;;14.48;3.92;;;7.80;97.60;;;;;;2065235;28;20101;-79
2021/03/28 01:47:18;;;;;;;12.60;3.95;;;7.80;97.80;;;;;;2064939;28;20022;-77
2021/03/28 01:48:21;;;;;;;11.77;3.80;;;7.80;97.90;;;;;;2064348;28;20026;-76
2021/03/28 01:49:40;;;;;;;14.45;3.88;;;7.80;97.50;;;;;;2064421;28;20019;-76
2021/03/28 01:50:41;;;;;;;10.07;3.10;;;7.80;98.00;;;;;;2063698;28;20022;-78
2021/03/28 01:52:19;;;;;;;14.57;3.60;;;7.80;97.50;;;;;;2064573;28;20019;-78
2021/03/28 01:53:31;;;;;;;9.73;3.03;;;7.80;98.10;;;;;;2064480;28;20018;-76
2021/03/28 01:54:43;;;;;;;10.35;3.58;;;7.80;98.10;;;;;;2064555;28;20069;-79
2021/03/28 01:56:07;;;;;;;13.07;4.35;;;7.80;97.70;;;;;;2065342;28;20026;-77
2021/03/28 01:57:19;;;;;;;12.52;4.10;;;7.80;97.60;;;;;;2047551;29;20023;-77
2021/03/28 02:02:35;;;;;;;15.18;3.83;;;7.90;98.20;;;;;;2065665;28;20022;-78
2021/03/28 02:03:50;;;;;;;9.95;3.13;;;7.80;98.00;;;;;;2064768;28;20022;-77
2021/03/28 02:05:24;;;;;;;12.65;3.63;;;7.80;98.00;;;;;;2064997;28;20022;-78
2021/03/28 02:06:31;;;;;;;15.10;4.32;;;7.80;98.30;;;;;;2065816;28;20022;-76
2021/03/28 02:07:53;;;;;;;9.32;3.58;;;7.90;97.80;;;;;;2065084;28;20027;-78
2021/03/28 02:08:59;;;;;;;11.75;3.38;;;7.90;98.40;;;;;;2065396;28;20501;-79
2021/03/28 02:10:13;;;;;;;12.77;4.03;;;7.90;97.90;;;;;;2065515;28;20026;-79
2021/03/28 02:11:19;;;;;;;14.02;3.70;;;7.90;98.20;;;;;;2065588;28;20018;-81
2021/03/28 02:12:43;;;;;;;12.88;4.50;;;7.90;98.00;;;;;;2064765;28;20018;-81
2021/03/28 02:14:04;;;;;;;9.80;3.40;;;7.90;98.20;;;;;;2065058;28;20022;-80
2021/03/28 02:15:40;;;;;;;15.75;4.07;;;7.90;98.00;;;;;;2065456;28;20573;-80
2021/03/28 02:17:17;;;;;;;9.82;3.30;;;7.90;98.20;;;;;;2065504;28;20022;-79
2021/03/28 02:18:45;;;;;;;11.05;3.10;;;7.90;98.20;;;;;;2065323;28;20037;-80
2021/03/28 02:20:04;;;;;;;10.02;3.35;;;7.90;97.90;;;;;;2064614;28;20077;-78
2021/03/28 02:21:42;;;;;;;14.80;3.55;;;7.90;98.30;;;;;;2064809;28;20018;-77
2021/03/28 02:22:51;;;;;;;13.48;3.97;;;7.90;98.30;;;;;;2061534;28;20019;-81
2021/03/28 02:24:19;;;;;;;11.10;3.28;;;7.90;97.90;;;;;;2057806;28;20129;-78
2021/03/28 02:25:51;;;;;;;19.60;3.53;;;7.90;98.40;;;;;;2043661;29;20087;-80
2021/03/28 02:27:18;;;;;;;12.10;3.90;;;8.00;98.30;;;;;;2068715;28;20023;-79
2021/03/28 02:28:59;;;;;;;8.48;3.28;;;8.00;98.40;;;;;;2064681;28;20501;-80
2021/03/28 02:30:24;;;;;;;10.73;3.22;;;8.00;98.30;;;;;;2044740;28;20099;-80
2021/03/28 02:31:52;;;;;;;10.27;3.53;;;8.00;98.00;;;;;;2065466;28;20381;-80
2021/03/28 02:33:19;;;;;;;15.02;4.45;;;8.00;98.10;;;;;;2065154;28;20018;-78
2021/03/28 02:34:54;;;;;;;13.88;3.38;;;8.10;97.90;;;;;;2065342;28;20390;-77
2021/03/28 02:36:13;;;;;;;13.88;3.20;;;8.00;98.50;;;;;;2065503;28;20466;-78
2021/03/28 02:37:53;;;;;;;8.55;3.42;;;8.00;98.00;;;;;;2064937;28;20498;-78
2021/03/28 02:42:50;;;;;;;14.32;3.90;;;8.00;98.80;;;;;;2065397;28;20030;-79
2021/03/28 02:44:10;;;;;;;12.73;4.35;;;8.00;98.10;;;;;;2064480;28;20038;-81
2021/03/28 02:45:26;;;;;;;11.45;3.75;;;8.00;98.30;;;;;;2064611;28;20025;-78
2021/03/28 02:46:45;;;;;;;11.88;3.75;;;8.10;98.40;;;;;;2064446;28;20022;-79
2021/03/28 02:48:14;;;;;;;13.63;4.40;;;8.10;98.10;;;;;;2064757;28;20058;-78
2021/03/28 02:49:33;;;;;;;12.73;3.75;;;8.10;98.10;;;;;;2049671;28;20035;-80
2021/03/28 02:50:53;;;;;;;11.35;4.13;;;8.10;98.10;;;;;;2065351;28;20084;-78
2021/03/28 02:52:14;;;;;;;11.43;3.85;;;8.10;98.50;;;;;;2065299;28;20037;-79
2021/03/28 02:53:35;;;;;;;10.00;3.30;;;8.10;98.80;;;;;;2065096;28;20077;-79
2021/03/28 02:54:44;;;;;;;;;;;8.10;98.60;;;;;;2065762;28;20635;-79
2021/03/28 02:56:06;;;;;;;10.50;3.10;;;8.00;99.20;;;;;;2065187;28;19905;-78
2021/03/28 02:57:43;;;;;;;10.02;3.45;;;8.10;98.50;;;;;;2064033;28;20081;-78
2021/03/28 02:59:10;;;;;;;9.80;3.00;;;8.10;98.80;;;;;;2064047;28;20037;-79
2021/03/28 03:00:24;;;;;;;11.30;3.10;;;8.10;98.80;;;;;;2064000;28;20312;-79
2021/03/28 03:01:46;;;;;;;8.85;3.55;;;8.10;98.40;;;;;;2064121;28;20030;-81
2021/03/28 03:02:55;;;;;;;10.23;3.22;;;8.10;98.50;;;;;;2063902;28;20508;-80
2021/03/28 03:04:14;;;;;;;9.82;3.08;;;8.10;98.50;;;;;;2064085;28;20030;-78
2021/03/28 03:05:59;;;;;;;10.25;3.33;;;8.10;98.50;;;;;;2064505;28;20018;-78
2021/03/28 03:07:23;;;;;;;8.65;3.42;;;8.20;98.90;;;;;;2047920;28;20039;-77
2021/03/28 03:08:43;;;;;;;12.07;3.10;;;8.20;98.80;;;;;;2064426;28;20046;-79
2021/03/28 03:10:19;;;;;;;16.58;3.70;;;8.20;98.70;;;;;;2063868;28;20033;-80
2021/03/28 03:11:19;;;;;;;10.07;3.38;;;8.20;98.30;;;;;;2039287;29;20172;-80
2021/03/28 03:12:35;;;;;;;14.52;3.67;;;8.20;98.30;;;;;;2039685;29;20027;-80
2021/03/28 03:14:05;;;;;;;11.32;3.05;;;8.20;98.60;;;;;;2050144;28;20045;-78
2021/03/28 03:15:24;;;;;;;13.80;3.50;;;8.20;98.60;;;;;;2063694;28;20022;-78
2021/03/28 03:16:36;;;;;;;11.25;3.03;;;8.20;98.60;;;;;;2063989;28;20022;-78
2021/03/28 03:18:12;;;;;;;11.32;2.90;;;8.20;98.40;;;;;;2064406;28;20027;-78
2021/03/28 03:19:47;;;;;;;9.95;3.08;;;8.20;98.80;;;;;;2063835;28;20026;-77
2021/03/28 03:21:09;;;;;;;13.93;2.95;;;8.20;98.70;;;;;;2064061;28;20525;-78
2021/03/28 03:22:50;;;;;;;11.63;3.35;;;8.20;98.90;;;;;;2064411;28;20019;-77
2021/03/28 03:24:05;;;;;;;12.88;2.78;;;8.20;99.00;;;;;;2063571;28;20677;-78
2021/03/28 03:25:37;;;;;;;13.32;3.25;;;8.20;98.90;;;;;;2063743;28;20018;-77
2021/03/28 03:26:46;;;;;;;10.38;2.65;;;8.20;99.00;;;;;;2063780;28;20022;-80
2021/03/28 03:28:11;;;;;;;12.70;3.60;;;8.20;99.10;;;;;;2063550;28;20023;-77
2021/03/28 03:29:49;;;;;;;10.65;2.97;;;8.20;98.90;;;;;;2063734;28;20332;-80
2021/03/28 03:31:01;;;;;;;10.18;3.00;;;8.20;99.10;;;;;;2063719;28;20033;-79
2021/03/28 03:32:04;;;;;;;9.70;3.08;;;8.20;99.20;;;;;;2064073;28;20033;-80
2021/03/28 03:33:16;;;;;;;13.43;3.20;;;8.20;99.00;;;;;;2064216;28;20022;-79
2021/03/28 03:34:42;;;;;;;11.95;3.17;;;8.20;99.30;;;;;;2064281;28;20026;-78
2021/03/28 03:36:16;;;;;;;11.07;3.15;;;8.20;99.40;;;;;;2063589;28;20050;-80
2021/03/28 03:37:50;;;;;;;13.93;2.72;;;8.20;99.70;;;;;;2059611;28;20037;-78
2021/03/28 03:38:51;;;;;;;9.45;2.65;;;8.10;99.90;;;;;;2063920;28;20027;-80
2021/03/28 03:40:33;;;;;;;8.70;2.78;;;8.20;99.40;;;;;;2064123;28;20496;-77
2021/03/28 03:42:01;;;;;;;11.93;3.03;;;8.20;99.90;;;;;;2063598;28;20022;-80
2021/03/28 03:43:32;;;;;;;10.45;3.33;;;8.20;99.90;;;;;;2064065;28;20036;-78
2021/03/28 03:44:33;;;;;;;10.70;2.35;;;8.20;99.90;;;;;;2064309;28;20392;-80
2021/03/28 03:45:36;;;;;;;8.63;2.90;;;8.10;99.80;;;;;;2063184;28;20082;-77
2021/03/28 03:46:42;;;;;;;10.88;2.88;;;8.20;99.90;;;;;;2063791;28;20030;-79
2021/03/28 03:48:10;;;;;;;11.15;2.95;;;8.20;99.90;;;;;;2056085;28;20117;-79
2021/03/28 03:49:25;;;;;;;6.15;2.33;;;8.20;99.90;;;;;;2059117;28;20072;-80
2021/03/28 03:50:50;;;;;;;10.00;2.70;;;8.20;99.90;;;;;;2057458;28;20374;-80
2021/03/28 03:51:53;;;;;;;10.27;3.15;;;8.20;99.90;;;;;;2063858;28;20027;-78
2021/03/28 03:53:18;;;;;;;6.13;2.50;;;8.20;99.90;;;;;;2064317;28;20483;-80
2021/03/28 03:54:33;;;;;;;11.05;3.05;;;8.20;99.90;;;;;;2064199;28;20023;-78
2021/03/28 03:55:42;;;;;;;9.88;2.95;;;8.20;99.90;;;;;;2064111;28;20417;-79
2021/03/28 03:57:05;;;;;;;7.07;2.17;;;8.30;99.90;;;;;;2064249;28;20030;-77
2021/03/28 03:58:25;;;;;;;8.63;2.35;;;8.30;99.90;;;;;;2064096;28;20019;-79
2021/03/28 03:59:53;;;;;;;10.32;2.70;;;8.30;99.90;;;;;;2064277;28;20497;-79
2021/03/28 04:01:18;;;;;;;12.10;2.95;;;8.30;99.90;;;;;;2063846;28;20110;-79
2021/03/28 04:02:27;;;;;;;10.82;2.72;;;8.30;99.90;;;;;;2063297;28;20023;-79
2021/03/28 04:03:38;;;;;;;9.63;2.70;;;8.30;99.90;;;;;;2057317;28;20031;-80
2021/03/28 04:04:39;;;;;;;13.63;3.05;;;8.30;99.90;;;;;;2065078;28;20027;-79
2021/03/28 04:05:48;;;;;;;8.30;2.40;;;8.30;99.90;;;;;;2071571;28;20033;-78
2021/03/28 04:07:19;;;;;;;10.30;3.40;;;8.30;99.90;;;;;;2063755;28;20022;-78
2021/03/28 04:08:52;;;;;;;9.73;2.88;;;8.30;99.90;;;;;;2063312;28;20497;-79
2021/03/28 04:10:02;;;;;;;8.70;2.75;;;8.30;99.90;;;;;;2063440;28;20101;-78
2021/03/28 04:11:37;;;;;;;13.80;3.33;;;8.30;99.90;;;;;;2063428;28;20092;-78
2021/03/28 04:12:55;;;;;;;11.27;3.17;;;8.30;99.90;;;;;;2063344;28;20042;-78
2021/03/28 04:14:21;;;;;;;9.68;2.78;;;8.30;99.90;;;;;;2063294;28;20026;-78
2021/03/28 04:15:30;;;;;;;9.18;2.80;;;8.30;99.90;;;;;;2063544;28;20026;-79
2021/03/28 04:16:31;;;;;;;8.88;3.00;;;8.30;99.90;;;;;;2063992;28;20030;-80
2021/03/28 04:17:39;;;;;;;7.95;2.42;;;8.30;99.90;;;;;;2063525;28;20027;-78
2021/03/28 04:19:11;;;;;;;8.32;2.90;;;8.40;99.90;;;;;;2063390;28;20030;-77
2021/03/28 04:20:45;;;;;;;9.63;3.08;;;8.40;99.90;;;;;;2038849;29;20505;-79
2021/03/28 04:22:05;;;;;;;15.25;3.28;;;8.30;99.90;;;;;;2063308;28;20042;-79
2021/03/28 04:23:27;;;;;;;9.40;2.70;;;8.30;99.90;;;;;;2063708;28;20022;-79
2021/03/28 04:24:34;;;;;;;11.43;2.78;;;8.30;99.90;;;;;;2063913;28;20543;-80
2021/03/28 04:26:05;;;;;;;11.68;3.10;;;8.30;99.90;;;;;;2064102;28;20378;-80
2021/03/28 04:27:17;;;;;;;8.30;2.90;;;8.30;99.90;;;;;;2063640;28;20019;-77
2021/03/28 04:28:29;;;;;;;9.25;2.58;;;8.30;99.90;;;;;;2063380;28;20026;-78
2021/03/28 04:29:31;;;;;;;9.35;2.53;;;8.40;99.90;;;;;;2063549;28;20022;-79
2021/03/28 04:31:09;;;;;;;11.43;2.88;;;8.40;99.90;;;;;;2063479;28;20026;-78
2021/03/28 04:32:47;;;;;;;9.23;2.80;;;8.30;99.90;;;;;;2063847;28;20045;-80
2021/03/28 04:34:09;;;;;;;7.43;2.53;;;8.30;99.90;;;;;;2063208;28;20512;-80
2021/03/28 04:35:19;;;;;;;7.85;2.72;;;8.30;99.90;;;;;;2063746;28;20026;-79
2021/03/28 04:36:42;;;;;;;9.95;2.97;;;8.30;99.90;;;;;;2064020;28;20023;-80
2021/03/28 04:38:00;;;;;;;6.72;2.78;;;8.30;99.90;;;;;;2063464;28;20014;-79
2021/03/28 04:39:27;;;;;;;13.68;2.70;;;8.30;99.90;;;;;;2064105;28;20019;-78
2021/03/28 04:40:33;;;;;;;10.35;2.53;;;8.30;99.90;;;;;;2064145;28;20359;-79
2021/03/28 04:41:55;;;;;;;10.38;2.97;;;8.30;99.90;;;;;;2063791;28;20466;-79
2021/03/28 04:43:33;;;;;;;9.15;2.08;;;8.30;99.90;;;;;;2063986;28;20023;-77
2021/03/28 04:44:36;;;;;;;5.60;2.15;;;8.30;99.90;;;;;;2063923;28;20118;-80
2021/03/28 04:46:14;;;;;;;9.02;3.13;;;8.30;99.90;;;;;;2063930;28;20018;-79
2021/03/28 04:47:40;;;;;;;12.23;2.97;;;8.30;99.90;;;;;;2063485;28;20018;-78
2021/03/28 04:49:02;;;;;;;9.32;2.47;;;8.30;99.90;;;;;;2063841;28;20034;-78
2021/03/28 04:50:29;;;;;;;12.88;3.00;;;8.30;99.90;;;;;;2063829;28;20018;-77
2021/03/28 04:52:18;;;;;;;9.07;2.83;;;8.30;99.90;;;;;;2063895;28;20054;-78
2021/03/28 04:53:46;;;;;;;7.50;2.55;;;8.30;99.90;;;;;;2046699;29;20031;-77
2021/03/28 04:58:58;;;;;;;8.02;2.00;;;8.20;99.90;;;;;;2048958;28;20019;-80
2021/03/28 05:00:23;;;;;;;13.68;3.25;;;8.20;99.90;;;;;;2063987;28;20034;-78
2021/03/28 05:01:35;;;;;;;9.43;2.30;;;8.30;99.90;;;;;;2063820;28;20497;-80
2021/03/28 05:03:15;;;;;;;5.85;2.25;;;8.20;99.90;;;;;;2063872;28;20621;-80
2021/03/28 05:04:57;;;;;;;6.13;2.30;;;8.30;99.90;;;;;;2062954;28;20438;-79
2021/03/28 05:06:11;;;;;;;15.00;3.25;;;8.20;99.90;;;;;;2062652;28;20230;-77
2021/03/28 05:07:49;;;;;;;6.43;2.50;;;8.30;99.90;;;;;;2063114;28;20113;-76
2021/03/28 05:09:14;;;;;;;5.85;2.22;;;8.30;99.90;;;;;;2063267;28;20023;-79
2021/03/28 05:10:51;;;;;;;10.52;2.80;;;8.30;99.90;;;;;;2063243;28;20449;-78
2021/03/28 05:12:29;;;;;;;6.45;1.88;;;8.30;99.90;;;;;;2038296;29;20127;-79
2021/03/28 05:13:38;;;;;;;7.47;2.05;;;8.30;99.90;;;;;;2066697;28;20022;-77
2021/03/28 05:15:03;;;;;;;6.53;2.70;;;8.30;99.90;;;;;;2063971;28;20033;-80
2021/03/28 05:16:30;;;;;;;8.85;2.30;;;8.30;99.90;;;;;;2063379;28;20545;-80
2021/03/28 05:17:52;;;;;;;9.23;2.58;;;8.30;99.90;;;;;;2063274;28;20038;-79
2021/03/28 05:19:07;;;;;;;10.43;2.35;;;8.30;99.90;;;;;;2063789;28;20035;-80
2021/03/28 05:20:26;;;;;;;9.98;2.97;;;8.30;99.90;;;;;;2063809;28;20389;-80
2021/03/28 05:22:04;;;;;;;8.77;2.38;;;8.40;99.90;;;;;;2063957;28;20088;-78
2021/03/28 05:23:11;;;;;;;11.77;2.60;;;8.40;99.90;;;;;;2063925;28;20027;-76
2021/03/28 05:24:29;;;;;;;9.18;2.42;;;8.40;99.90;;;;;;2063619;28;20026;-80
2021/03/28 05:25:32;;;;;;;11.10;2.30;;;8.40;99.90;;;;;;2064420;28;20085;-78
2021/03/28 05:27:16;;;;;;;12.38;3.13;;;8.40;99.90;;;;;;2064500;28;20596;-79
2021/03/28 05:28:43;;;;;;;6.75;2.63;;;8.40;99.90;;;;;;2065007;28;20030;-78
2021/03/28 05:30:06;;;;;;;13.57;2.65;;;8.40;99.90;;;;;;2065224;28;20033;-78
2021/03/28 05:31:29;;;;;;;10.10;2.47;;;8.40;99.90;;;;;;2065420;28;20026;-78
2021/03/28 05:32:54;;;;;;;9.57;2.42;;;8.40;99.90;;;;;;2065187;28;20465;-80
2021/03/28 05:34:22;;;;;;;4.43;2.03;;;8.50;99.90;;;;;;2064809;28;20030;-80
2021/03/28 05:35:57;;;;;;;10.73;3.17;;;8.50;99.90;;;;;;2065333;28;20023;-80
2021/03/28 05:37:31;;;;;;;11.32;3.33;;;8.40;99.90;;;;;;2039779;29;20046;-78
2021/03/28 05:38:56;;;;;;;7.07;2.15;;;8.50;99.90;;;;;;2053314;28;20063;-79
2021/03/28 05:40:16;;;;;;;9.27;2.53;;;8.50;99.90;;;;;;2065123;28;20036;-79
2021/03/28 05:41:51;;;;;;;15.85;2.75;;;8.50;99.90;;;;;;2064474;28;20026;-80
2021/03/28 05:43:22;;;;;;;7.80;2.20;;;8.50;99.90;;;;;;2065200;28;20023;-80
2021/03/28 05:44:47;;;;;;;7.15;2.40;;;8.50;99.90;;;;;;2064102;28;20037;-78
2021/03/28 05:46:06;;;;;;;10.68;2.67;;;8.50;99.90;;;;;;2064525;28;20033;-79
2021/03/28 05:47:31;;;;;;;9.98;2.67;;;8.50;99.90;;;;;;2064427;28;20066;-78
2021/03/28 05:48:38;;;;;;;7.50;2.70;;;8.60;99.90;;;;;;2064316;28;20027;-81
2021/03/28 05:49:53;;;;;;;7.43;2.75;;;8.50;99.90;;;;;;2064637;28;20072;-78
2021/03/28 05:51:06;;;;;;;9.27;2.70;;;8.60;99.90;;;;;;2065193;28;20105;-78
2021/03/28 05:52:43;;;;;;;13.07;3.10;;;8.60;99.90;;;;;;2065367;28;20040;-80
2021/03/28 05:53:59;;;;;;;9.60;2.92;;;8.60;99.90;;;;;;2064887;28;20103;-78
2021/03/28 05:55:05;;;;;;;9.52;2.33;;;8.60;99.90;;;;;;2065404;28;20053;-81
2021/03/28 05:56:27;;;;;;;6.25;2.00;;;8.60;99.90;;;;;;2065122;28;20018;-78
2021/03/28 05:57:52;;;;;;;11.80;2.78;;;8.60;99.90;;;;;;2064769;28;20023;-78
2021/03/28 05:59:16;;;;;;;12.90;3.05;;;8.60;99.90;;;;;;2064956;28;20033;-78
2021/03/28 06:00:24;;;;;;;8.82;2.65;;;8.70;99.90;;;;;;2065146;28;20037;-81
2021/03/28 06:01:43;;;;;;;9.13;2.85;;;8.70;99.90;;;;;;2065367;28;20585;-79
2021/03/28 06:03:19;;;;;;;9.85;2.85;;;8.70;99.90;;;;;;2064409;28;20077;-80
2021/03/28 06:04:56;;;;;;;13.00;2.47;;;8.70;99.90;;;;;;2064321;28;20385;-80
2021/03/28 06:06:22;;;;;;;9.10;2.28;;;8.70;99.90;;;;;;2064925;28;20137;-77
2021/03/28 06:07:41;;;;;;;7.05;2.17;;;8.70;99.90;;;;;;2064649;28;20077;-81
2021/03/28 06:09:19;;;;;;;6.55;2.22;;;8.70;99.90;;;;;;2065062;28;20057;-80
2021/03/28 06:10:44;;;;;;;6.03;2.13;;;8.80;99.90;;;;;;2065020;28;20023;-81
2021/03/28 06:11:50;;;;;;;9.40;2.40;;;8.70;99.90;;;;;;2064834;28;20088;-79
2021/03/28 06:12:59;;;;;;;9.38;2.40;;;8.80;99.90;;;;;;2064906;28;20030;-81
2021/03/28 06:14:13;;;;;;;10.75;2.75;;;8.80;99.90;;;;;;2064931;28;20015;-80
2021/03/28 06:15:32;;;;;;;10.00;4.00;;;8.80;99.90;;;;;;2064274;28;20492;-78
2021/03/28 06:17:10;;;;;;;7.63;2.53;;;8.90;99.90;;;;;;2064331;28;20493;-80
2021/03/28 06:18:48;;;;;;;8.75;2.45;;;8.90;99.90;;;;;;2064749;28;20101;-77
2021/03/28 06:20:35;;;;;;;8.15;2.45;;;8.90;99.90;;;;;;2064781;28;20072;-78
2021/03/28 06:22:03;;;;;;;7.38;2.00;;;8.80;99.90;;;;;;2064271;28;20065;-77
2021/03/28 06:23:25;;;;;;;7.65;2.97;;;8.90;99.90;;;;;;2064528;28;20037;-78
2021/03/28 06:24:48;;;;;;;11.70;2.45;;;8.90;99.90;;;;;;2064604;28;20062;-80
2021/03/28 06:26:09;;;;;;;7.75;2.70;;;8.90;99.90;;;;;;2064865;28;20496;-81
2021/03/28 06:27:15;;;;;;;12.93;2.08;;;9.00;99.90;;;;;;2063766;28;20070;-79
2021/03/28 06:28:36;;;;;;;7.30;2.60;;;9.00;99.90;;;;;;2063877;28;20169;-79
2021/03/28 06:30:12;;;;;;;5.45;1.65;;;9.10;99.90;;;;;;2064383;28;20018;-78
2021/03/28 06:31:51;;;;;;;6.63;2.33;;;9.10;99.90;;;;;;2064896;28;20018;-78
2021/03/28 06:33:10;;;;;;;8.32;1.80;;;9.10;99.90;;;;;;2064030;28;20513;-78
2021/03/28 06:34:29;;;;;;;9.32;2.30;;;9.10;99.60;;;;;;2063999;28;20031;-80
2021/03/28 06:35:51;;;;;;;7.00;1.85;;;9.10;99.90;;;;;;2064867;28;20054;-80
2021/03/28 06:37:09;;;;;;;10.57;2.10;;;9.20;99.80;;;;;;2063617;28;20113;-77
2021/03/28 06:38:18;;;;;;;9.80;2.72;;;9.20;99.80;;;;;;2063720;28;20022;-79
2021/03/28 06:39:28;;;;;;;7.10;2.00;;;9.20;99.80;;;;;;2064786;28;20038;-76
2021/03/28 06:40:52;;;;;;;9.15;2.00;;;9.30;99.60;;;;;;2063898;28;20690;-77
2021/03/28 06:42:31;;;;;;;11.20;2.30;;;9.30;99.30;;;;;;2064403;28;20098;-79
2021/03/28 06:44:23;;;;;;;4.30;1.80;;;9.30;99.80;;;;;;2039329;29;20137;-79
2021/03/28 06:45:38;;;;;;;7.35;1.98;;;9.30;99.60;;;;;;2046093;29;20541;-77
2021/03/28 06:47:08;;;;;;;7.32;2.08;;;9.30;99.70;;;;;;2047555;29;20035;-79
2021/03/28 06:48:30;;;;;;;6.88;2.20;;;9.30;99.50;;;;;;2047189;29;20032;-80
2021/03/28 06:49:52;;;;;;;6.68;2.25;;;9.40;99.60;;;;;;2047789;29;20557;-81
2021/03/28 06:51:31;;;;;;;7.82;1.92;;;9.40;99.20;;;;;;2056101;28;20596;-77
2021/03/28 06:53:00;;;;;;;10.75;2.33;;;9.40;99.60;;;;;;2062616;28;20030;-77
2021/03/28 06:54:18;;;;;;;6.45;1.98;;;9.40;99.70;;;;;;2064494;28;20030;-77
2021/03/28 06:55:43;;;;;;;5.53;1.83;;;9.50;99.60;;;;;;2064529;28;20026;-78
2021/03/28 06:57:21;;;;;;;5.75;2.28;;;9.50;99.70;;;;;;2064013;28;20054;-79
2021/03/28 06:59:01;;;;;;;9.02;2.53;;;9.50;99.50;;;;;;2063675;28;20025;-80
2021/03/28 07:00:20;;;;;;;;;;;9.60;99.20;;;;;;2064330;28;20105;-79
2021/03/28 07:02:02;;;;;;;8.82;2.10;;;9.50;99.60;;;;;;2057897;28;20254;-77
2021/03/28 07:03:05;;;;;;;5.18;1.80;;;9.50;99.20;;;;;;2064331;28;20026;-78
2021/03/28 07:04:09;;;;;;;7.10;1.58;;;9.60;99.30;;;;;;2063543;28;20022;-80
2021/03/28 07:05:45;;;;;;;5.75;2.05;;;9.60;99.20;;;;;;2063668;28;20022;-77
2021/03/28 07:06:52;;;;;;;8.55;2.33;;;9.60;99.20;;;;;;2063464;28;20023;-79
2021/03/28 07:08:15;;;;;;;7.13;2.10;;;9.70;99.10;;;;;;2063928;28;20026;-79
2021/03/28 07:09:52;;;;;;;8.98;2.30;;;9.70;98.50;;;;;;2064792;28;20014;-77
2021/03/28 07:11:05;;;;;;;6.82;2.08;;;9.70;98.60;;;;;;2064683;28;20355;-78
2021/03/28 07:12:25;;;;;;;7.60;2.20;;;9.70;98.80;;;;;;2063908;28;20058;-77
2021/03/28 07:13:34;;;;;;;8.57;2.17;;;9.80;99.10;;;;;;2063903;28;20485;-77
2021/03/28 07:14:44;;;;;;;13.43;2.65;;;9.80;99.20;;;;;;2063995;28;20031;-76
2021/03/28 07:16:35;;;;;;;15.40;2.88;;;9.80;99.10;;;;;;2063748;28;20501;-79